Time;durP1;ratioP1;P1;durP2;ratioP2;P2;SDS_P1;SDS_P2;PMS_P1;PMS_P2;Temp;Humidity;BMP_temperature;BMP_pressure;BME280_temperature;BME280_humidity;BME280_pressure;Samples;Min_cycle;Max_cycle;Signal;HPM_P1;HPM_P2
2023/06/17 00:00:28;;;;;;;4.03;2.45;;;19.20;52.30;;;;;;5083934;28;20731;-66
2023/06/17 00:02:53;;;;;;;4.78;2.90;;;19.20;52.60;;;;;;5075250;28;20020;-66
2023/06/17 00:05:20;;;;;;;3.55;2.67;;;19.10;52.90;;;;;;5073925;28;20078;-65
2023/06/17 00:07:45;;;;;;;2.70;2.40;;;19.10;53.00;;;;;;5076432;28;20063;-66
2023/06/17 00:10:11;;;;;;;3.38;2.70;;;19.10;53.10;;;;;;5079236;28;20071;-66
2023/06/17 00:12:37;;;;;;;4.40;2.95;;;19.00;53.10;;;;;;5068192;28;20031;-66
2023/06/17 00:15:05;;;;;;;4.32;2.80;;;19.10;53.30;;;;;;5075890;28;20036;-66
2023/06/17 00:17:32;;;;;;;3.15;2.20;;;19.00;53.20;;;;;;5073576;28;20061;-66
2023/06/17 00:20:00;;;;;;;3.53;2.67;;;19.00;53.30;;;;;;5075535;28;20588;-68
2023/06/17 00:22:29;;;;;;;3.67;2.75;;;19.00;53.50;;;;;;5078968;28;20073;-66
2023/06/17 00:24:56;;;;;;;3.08;2.60;;;19.00;53.60;;;;;;5079155;28;20020;-66
2023/06/17 00:27:22;;;;;;;4.00;2.70;;;19.00;53.80;;;;;;5076220;28;20081;-66
2023/06/17 00:29:47;;;;;;;3.65;2.80;;;18.90;53.90;;;;;;5081933;28;20123;-67
2023/06/17 00:32:13;;;;;;;3.00;2.60;;;18.90;53.90;;;;;;5074651;28;20055;-67
2023/06/17 00:34:38;;;;;;;2.60;2.40;;;18.90;53.90;;;;;;5076526;28;20036;-66
2023/06/17 00:37:04;;;;;;;3.67;2.70;;;18.90;54.00;;;;;;5078381;28;20032;-67
2023/06/17 00:39:33;;;;;;;3.22;2.67;;;18.90;54.10;;;;;;5077874;28;20081;-67
2023/06/17 00:42:00;;;;;;;3.50;2.95;;;18.80;54.30;;;;;;5075438;28;20039;-67
2023/06/17 00:44:26;;;;;;;4.35;3.08;;;18.80;54.60;;;;;;5078372;28;20058;-67
2023/06/17 00:46:53;;;;;;;3.63;2.60;;;18.80;54.80;;;;;;5078356;28;20110;-67
2023/06/17 00:49:22;;;;;;;2.80;2.50;;;18.80;54.90;;;;;;5082813;28;20069;-67
2023/06/17 00:51:49;;;;;;;3.58;2.53;;;18.70;54.90;;;;;;5077351;28;20111;-67
2023/06/17 00:54:15;;;;;;;3.95;3.13;;;18.70;55.10;;;;;;5076024;28;20036;-67
2023/06/17 00:56:41;;;;;;;3.65;2.80;;;18.70;55.20;;;;;;5076726;28;20032;-67
2023/06/17 00:59:08;;;;;;;3.35;2.85;;;18.60;55.30;;;;;;5074531;28;20056;-67
2023/06/17 01:01:36;;;;;;;4.03;3.00;;;18.60;55.40;;;;;;5075442;28;20405;-67
2023/06/17 01:04:04;;;;;;;3.63;2.85;;;18.60;55.60;;;;;;5074575;28;20016;-67
2023/06/17 01:06:39;;;;;;;3.08;2.75;;;18.50;55.70;;;;;;5077872;28;20030;-67
2023/06/17 01:09:09;;;;;;;4.05;3.00;;;18.50;55.90;;;;;;5077078;28;20039;-67
2023/06/17 01:11:37;;;;;;;3.30;2.97;;;18.50;56.00;;;;;;5078340;28;20051;-67
2023/06/17 01:14:05;;;;;;;3.42;2.83;;;18.50;56.00;;;;;;5077262;28;20081;-67
2023/06/17 01:16:34;;;;;;;4.03;3.17;;;18.50;56.20;;;;;;5078233;28;20034;-67
2023/06/17 01:19:02;;;;;;;3.25;2.85;;;18.40;56.30;;;;;;5082478;28;20101;-67
2023/06/17 01:21:31;;;;;;;3.90;2.95;;;18.40;56.50;;;;;;5076509;28;20024;-68
2023/06/17 01:23:58;;;;;;;3.95;3.28;;;18.40;56.60;;;;;;5078409;28;20020;-67
2023/06/17 01:26:24;;;;;;;3.67;3.35;;;18.40;56.70;;;;;;5077745;28;20025;-67
2023/06/17 01:28:49;;;;;;;3.15;2.85;;;18.40;56.80;;;;;;5077700;28;20496;-67
2023/06/17 01:31:18;;;;;;;4.05;3.22;;;18.40;56.90;;;;;;5079229;28;20027;-67
2023/06/17 01:33:46;;;;;;;4.97;3.63;;;18.40;57.10;;;;;;5080369;28;20024;-67
2023/06/17 01:36:22;;;;;;;3.88;3.45;;;18.30;57.30;;;;;;5078977;28;20075;-67
2023/06/17 01:38:51;;;;;;;5.18;3.40;;;18.30;57.50;;;;;;5081404;28;20034;-65
2023/06/17 01:41:23;;;;;;;3.63;3.22;;;18.30;57.50;;;;;;5080849;28;20033;-65
2023/06/17 01:43:49;;;;;;;4.47;3.40;;;18.30;57.50;;;;;;5080176;28;20062;-66
2023/06/17 01:46:16;;;;;;;3.85;3.45;;;18.30;57.60;;;;;;5079598;28;20054;-65
2023/06/17 01:48:42;;;;;;;4.03;3.47;;;18.20;57.70;;;;;;5074305;28;20513;-65
2023/06/17 01:51:08;;;;;;;5.00;3.80;;;18.20;58.00;;;;;;5078731;28;20035;-66
2023/06/17 01:53:34;;;;;;;4.20;3.55;;;18.20;58.20;;;;;;5078721;28;20020;-67
2023/06/17 01:55:59;;;;;;;4.80;3.95;;;18.20;58.40;;;;;;5080340;28;20517;-65
2023/06/17 01:58:25;;;;;;;4.97;4.07;;;18.10;58.80;;;;;;5079547;28;20493;-65
2023/06/17 02:00:51;;;;;;;5.30;4.22;;;18.10;59.10;;;;;;5079572;28;20089;-66
2023/06/17 02:03:17;;;;;;;5.50;4.80;;;18.10;59.40;;;;;;5082225;28;20028;-66
2023/06/17 02:05:43;;;;;;;5.15;4.38;;;18.10;59.60;;;;;;5081083;28;20016;-65
2023/06/17 02:08:09;;;;;;;6.00;4.10;;;18.10;59.80;;;;;;5085382;28;20032;-66
2023/06/17 02:10:35;;;;;;;5.65;4.25;;;18.10;60.10;;;;;;5077208;28;20150;-66
2023/06/17 02:13:07;;;;;;;5.15;4.63;;;18.10;60.10;;;;;;5073457;28;21052;-66
2023/06/17 02:15:33;;;;;;;4.63;4.13;;;18.10;60.20;;;;;;5074653;28;20036;-65
2023/06/17 02:17:59;;;;;;;6.72;4.43;;;18.10;60.30;;;;;;5075404;28;20035;-65
2023/06/17 02:20:26;;;;;;;5.20;4.03;;;18.10;60.60;;;;;;5078999;28;20463;-66
2023/06/17 02:22:52;;;;;;;5.03;3.90;;;18.10;60.60;;;;;;5078324;28;20024;-65
2023/06/17 02:25:18;;;;;;;5.18;3.90;;;18.00;60.70;;;;;;5079473;28;20102;-65
2023/06/17 02:27:44;;;;;;;5.82;4.25;;;17.90;60.60;;;;;;5081150;28;20039;-66
2023/06/17 02:30:10;;;;;;;4.90;3.95;;;17.90;60.70;;;;;;5080574;28;20051;-66
2023/06/17 02:32:36;;;;;;;4.53;3.90;;;17.90;60.90;;;;;;5077629;28;20646;-66
2023/06/17 02:35:02;;;;;;;5.30;4.35;;;17.90;61.60;;;;;;5084124;28;20384;-66
2023/06/17 02:37:28;;;;;;;4.40;3.72;;;17.80;60.90;;;;;;5074593;28;20037;-66
2023/06/17 02:39:54;;;;;;;4.82;4.30;;;17.80;61.00;;;;;;5078029;28;20032;-66
2023/06/17 02:42:20;;;;;;;5.88;4.57;;;17.80;61.00;;;;;;5078355;28;20066;-66
2023/06/17 02:44:45;;;;;;;5.85;4.55;;;17.80;61.10;;;;;;5078078;28;20095;-66
2023/06/17 02:47:11;;;;;;;5.57;4.47;;;17.80;61.30;;;;;;5078849;28;20035;-66
2023/06/17 02:49:37;;;;;;;6.00;5.03;;;17.70;61.30;;;;;;5079898;28;20501;-66
2023/06/17 02:52:02;;;;;;;6.55;5.05;;;17.70;61.40;;;;;;5079964;28;20047;-66
2023/06/17 02:54:28;;;;;;;7.03;4.97;;;17.70;61.50;;;;;;5078303;28;20059;-65
2023/06/17 02:56:54;;;;;;;5.97;5.03;;;17.60;61.50;;;;;;5077522;28;20102;-66
2023/06/17 02:59:19;;;;;;;6.28;4.82;;;17.60;61.60;;;;;;5077002;28;20032;-66
2023/06/17 03:01:45;;;;;;;12.85;5.22;;;17.60;61.70;;;;;;5076223;28;20023;-66
2023/06/17 03:04:11;;;;;;;5.22;4.72;;;17.60;61.70;;;;;;5077230;28;20016;-66
2023/06/17 03:06:40;;;;;;;5.60;4.80;;;17.50;61.70;;;;;;5079008;28;20017;-66
2023/06/17 03:09:09;;;;;;;7.70;5.60;;;17.50;61.80;;;;;;5074610;28;20036;-66
2023/06/17 03:11:36;;;;;;;6.78;5.55;;;17.50;62.00;;;;;;5074256;28;20032;-66
2023/06/17 03:14:02;;;;;;;5.80;4.82;;;17.50;62.00;;;;;;5075683;28;20027;-67
2023/06/17 03:16:31;;;;;;;7.75;5.28;;;17.50;62.00;;;;;;5079155;28;20045;-66
2023/06/17 03:18:58;;;;;;;6.63;5.25;;;17.50;62.00;;;;;;5085299;28;20154;-67
2023/06/17 03:21:24;;;;;;;6.13;5.13;;;17.40;62.00;;;;;;5086864;28;20173;-67
2023/06/17 03:23:50;;;;;;;6.68;5.53;;;17.40;62.00;;;;;;5075896;28;20027;-67
2023/06/17 03:26:16;;;;;;;6.70;5.45;;;17.40;62.00;;;;;;5075219;28;20051;-66
2023/06/17 03:28:41;;;;;;;7.57;5.28;;;17.40;62.10;;;;;;5080507;28;20036;-66
2023/06/17 03:31:07;;;;;;;7.60;5.38;;;17.40;62.10;;;;;;5078311;28;20025;-67
2023/06/17 03:33:33;;;;;;;6.57;5.88;;;17.40;62.10;;;;;;5084776;28;20020;-66
2023/06/17 03:35:58;;;;;;;5.50;4.80;;;17.30;62.20;;;;;;5074561;28;20024;-66
2023/06/17 03:38:24;;;;;;;8.45;6.57;;;17.30;62.20;;;;;;5080537;28;20111;-67
2023/06/17 03:40:49;;;;;;;6.35;5.07;;;17.30;62.40;;;;;;5078343;28;20052;-67
2023/06/17 03:43:15;;;;;;;7.15;6.45;;;17.30;62.30;;;;;;5082152;28;20016;-67
2023/06/17 03:45:41;;;;;;;8.38;6.35;;;17.30;62.50;;;;;;5077938;28;20024;-67
2023/06/17 03:48:06;;;;;;;7.28;6.35;;;17.30;62.60;;;;;;5082420;28;20035;-67
2023/06/17 03:50:32;;;;;;;6.35;5.60;;;17.40;62.70;;;;;;5079007;28;20029;-67
2023/06/17 03:52:58;;;;;;;9.25;6.13;;;17.40;62.60;;;;;;5077173;28;20039;-68
2023/06/17 03:55:24;;;;;;;7.45;5.90;;;17.40;62.60;;;;;;5080870;28;20016;-67
2023/06/17 03:57:50;;;;;;;7.63;6.10;;;17.40;62.60;;;;;;5077760;28;20127;-67
2023/06/17 04:00:16;;;;;;;7.18;5.13;;;17.40;62.70;;;;;;5077643;28;20485;-67
2023/06/17 04:02:45;;;;;;;6.60;5.60;;;17.50;62.70;;;;;;5084807;28;20026;-67
2023/06/17 04:05:12;;;;;;;6.20;5.57;;;17.50;62.70;;;;;;5076179;28;20089;-66
2023/06/17 04:07:38;;;;;;;6.55;5.25;;;17.50;62.90;;;;;;5071081;28;20447;-67
2023/06/17 04:10:08;;;;;;;6.07;5.47;;;17.50;62.90;;;;;;5078231;28;20104;-67
2023/06/17 04:12:38;;;;;;;7.60;5.53;;;17.50;62.90;;;;;;5074420;28;20064;-66
2023/06/17 04:15:06;;;;;;;6.70;5.80;;;17.50;63.00;;;;;;5080633;28;20040;-66
2023/06/17 04:17:31;;;;;;;7.68;6.60;;;17.60;63.10;;;;;;5075949;28;20036;-66
2023/06/17 04:20:04;;;;;;;7.32;6.45;;;17.60;63.10;;;;;;5077528;28;20104;-66
2023/06/17 04:22:29;;;;;;;6.10;5.50;;;17.60;63.30;;;;;;5087424;28;20012;-66
2023/06/17 04:24:55;;;;;;;7.72;6.25;;;17.70;63.40;;;;;;5080717;28;20085;-66
2023/06/17 04:27:22;;;;;;;8.27;6.03;;;17.60;63.30;;;;;;5077728;28;20020;-66
2023/06/17 04:29:48;;;;;;;8.15;6.35;;;17.70;63.30;;;;;;5084446;28;20058;-66
2023/06/17 04:32:15;;;;;;;7.55;6.15;;;17.70;63.40;;;;;;5081369;28;20032;-66
2023/06/17 04:34:47;;;;;;;6.97;6.28;;;17.70;63.50;;;;;;5074603;28;20031;-66
2023/06/17 04:37:14;;;;;;;;;;;17.80;63.60;;;;;;5086925;28;20089;-67
2023/06/17 04:39:42;;;;;;;7.53;6.32;;;17.80;63.30;;;;;;5081615;28;19962;-67
2023/06/17 04:42:09;;;;;;;10.63;7.40;;;17.80;63.60;;;;;;5071543;28;20372;-67
2023/06/17 04:44:36;;;;;;;7.95;6.22;;;17.90;63.90;;;;;;5075567;28;20021;-71
2023/06/17 04:47:02;;;;;;;8.27;6.68;;;17.90;63.80;;;;;;5076801;28;20120;-67
2023/06/17 04:49:28;;;;;;;8.25;7.10;;;18.00;63.80;;;;;;5076825;28;20729;-66
2023/06/17 04:51:54;;;;;;;8.45;7.28;;;18.10;64.00;;;;;;5076345;28;20032;-66
2023/06/17 04:54:19;;;;;;;9.15;7.53;;;18.60;63.50;;;;;;5074725;28;20016;-66
2023/06/17 04:56:45;;;;;;;8.20;7.40;;;19.10;62.50;;;;;;5084626;28;20021;-66
2023/06/17 04:59:11;;;;;;;8.73;6.72;;;19.60;61.70;;;;;;5084838;28;20033;-67
2023/06/17 05:01:37;;;;;;;7.50;6.65;;;19.90;60.90;;;;;;5080076;28;20032;-67
2023/06/17 05:04:03;;;;;;;9.27;7.18;;;20.20;60.40;;;;;;5085002;28;20087;-66
2023/06/17 05:06:28;;;;;;;7.88;7.07;;;20.50;59.90;;;;;;5080931;28;20027;-66
2023/06/17 05:08:54;;;;;;;9.23;7.15;;;20.70;59.50;;;;;;5084611;28;20027;-66
2023/06/17 05:11:20;;;;;;;8.43;6.88;;;20.90;59.00;;;;;;5081346;28;20406;-66
2023/06/17 05:13:45;;;;;;;7.93;6.22;;;21.20;58.60;;;;;;5075068;28;20029;-66
2023/06/17 05:16:11;;;;;;;7.80;6.43;;;21.30;58.10;;;;;;5086956;28;20050;-66
2023/06/17 05:18:36;;;;;;;9.00;7.25;;;21.50;57.90;;;;;;5081544;28;20104;-66
2023/06/17 05:21:05;;;;;;;8.15;7.35;;;21.50;57.70;;;;;;5081192;28;20036;-66
2023/06/17 05:23:30;;;;;;;10.57;8.02;;;21.70;58.30;;;;;;5073781;28;20024;-66
2023/06/17 05:25:56;;;;;;;10.00;7.45;;;21.80;57.40;;;;;;5077218;28;20028;-66
2023/06/17 05:28:21;;;;;;;8.02;6.30;;;22.00;57.30;;;;;;5076563;28;20032;-66
2023/06/17 05:30:47;;;;;;;7.82;7.03;;;22.10;57.20;;;;;;5086314;28;20029;-66
2023/06/17 05:33:12;;;;;;;9.77;7.05;;;22.20;57.10;;;;;;5083961;28;20551;-66
2023/06/17 05:35:38;;;;;;;8.10;6.90;;;22.20;57.00;;;;;;5076934;28;20054;-66
2023/06/17 05:38:04;;;;;;;8.65;7.47;;;22.30;57.00;;;;;;5076599;28;20028;-66
2023/06/17 05:40:29;;;;;;;10.32;7.05;;;22.30;57.10;;;;;;5082582;28;20008;-66
2023/06/17 05:42:55;;;;;;;10.70;7.40;;;22.30;57.30;;;;;;5074397;28;20041;-67
2023/06/17 05:45:20;;;;;;;8.27;7.40;;;22.30;57.30;;;;;;5076952;28;20043;-65
2023/06/17 05:47:46;;;;;;;8.30;6.22;;;22.10;57.50;;;;;;5082967;28;20020;-66
2023/06/17 05:50:12;;;;;;;8.15;6.10;;;22.10;57.80;;;;;;5077466;28;20024;-66
2023/06/17 05:52:37;;;;;;;9.38;7.30;;;22.00;57.90;;;;;;5073902;28;20430;-66
2023/06/17 05:55:03;;;;;;;9.73;7.70;;;21.90;58.00;;;;;;5075300;28;20032;-66
2023/06/17 05:57:28;;;;;;;10.35;7.18;;;21.80;58.00;;;;;;5081014;28;20031;-67
2023/06/17 05:59:55;;;;;;;9.60;7.10;;;21.70;58.20;;;;;;5075178;28;20495;-66
2023/06/17 06:02:20;;;;;;;7.22;6.50;;;21.70;58.40;;;;;;5086347;28;20030;-66
2023/06/17 06:04:47;;;;;;;7.13;6.38;;;21.70;58.50;;;;;;5082035;28;20025;-66
2023/06/17 06:07:12;;;;;;;7.97;5.95;;;21.70;58.40;;;;;;5079501;28;20498;-67
2023/06/17 06:09:38;;;;;;;6.82;5.72;;;21.80;58.30;;;;;;5077979;28;20029;-66
2023/06/17 06:12:04;;;;;;;7.28;6.45;;;21.80;58.20;;;;;;5077847;28;20379;-66
2023/06/17 06:14:30;;;;;;;7.55;6.20;;;21.90;58.20;;;;;;5082781;28;21617;-66
2023/06/17 06:16:55;;;;;;;7.50;6.30;;;22.00;58.00;;;;;;5078093;28;20081;-67
2023/06/17 06:19:21;;;;;;;6.47;5.63;;;22.00;57.90;;;;;;5086200;28;20020;-67
2023/06/17 06:21:46;;;;;;;7.53;6.50;;;22.00;57.80;;;;;;5077711;28;20070;-66
2023/06/17 06:24:12;;;;;;;7.47;6.07;;;22.10;57.80;;;;;;5074340;28;20024;-67
2023/06/17 06:26:37;;;;;;;6.32;5.70;;;22.30;57.50;;;;;;5075620;28;20028;-66
2023/06/17 06:29:03;;;;;;;7.03;5.80;;;22.40;57.30;;;;;;5078782;28;20040;-66
2023/06/17 06:31:28;;;;;;;5.88;5.00;;;22.60;57.00;;;;;;5080953;28;20107;-66
2023/06/17 06:33:54;;;;;;;6.47;5.10;;;22.80;56.80;;;;;;5076545;28;20037;-67
2023/06/17 06:36:19;;;;;;;6.13;4.70;;;23.00;56.50;;;;;;5089217;28;20020;-67
2023/06/17 06:38:45;;;;;;;5.78;5.10;;;23.00;56.00;;;;;;5077040;28;20028;-66
2023/06/17 06:41:11;;;;;;;7.57;5.18;;;23.10;55.50;;;;;;5080280;28;20743;-66
2023/06/17 06:43:37;;;;;;;6.35;4.90;;;23.30;55.20;;;;;;5079902;28;20024;-66
2023/06/17 06:46:03;;;;;;;4.80;4.15;;;23.40;54.80;;;;;;5081913;28;20024;-68
2023/06/17 06:48:28;;;;;;;4.90;4.40;;;23.50;54.50;;;;;;5079135;28;20040;-65
2023/06/17 06:50:54;;;;;;;5.97;4.18;;;23.70;53.90;;;;;;5076031;28;20032;-66
2023/06/17 06:53:21;;;;;;;5.05;4.03;;;23.80;53.30;;;;;;5075172;28;20029;-67
2023/06/17 06:55:46;;;;;;;4.22;3.83;;;23.90;53.10;;;;;;5080201;28;20024;-67
2023/06/17 06:58:12;;;;;;;4.72;3.90;;;24.00;52.60;;;;;;5081029;28;20357;-66
2023/06/17 07:00:39;;;;;;;4.43;3.78;;;24.20;52.70;;;;;;5078668;28;20028;-67
2023/06/17 07:03:04;;;;;;;4.30;3.50;;;24.30;51.60;;;;;;5080441;28;20016;-67
2023/06/17 07:05:30;;;;;;;5.75;3.83;;;24.60;51.20;;;;;;5080165;28;20089;-67
2023/06/17 07:07:56;;;;;;;3.47;3.17;;;24.60;49.70;;;;;;5080123;28;20078;-67
2023/06/17 07:10:22;;;;;;;4.40;3.38;;;24.60;49.00;;;;;;5080611;28;20441;-67
2023/06/17 07:12:47;;;;;;;5.50;3.33;;;24.60;47.90;;;;;;5080790;28;20020;-67
2023/06/17 07:15:14;;;;;;;4.57;3.63;;;24.60;47.00;;;;;;5074387;28;20040;-68
2023/06/17 07:17:39;;;;;;;4.20;3.35;;;24.70;47.80;;;;;;5084985;28;20028;-67
2023/06/17 07:20:05;;;;;;;4.63;3.67;;;24.80;47.20;;;;;;5079644;28;20024;-67
2023/06/17 07:22:31;;;;;;;6.63;3.30;;;24.90;47.30;;;;;;5072267;28;20028;-67
2023/06/17 07:24:56;;;;;;;4.50;3.30;;;25.10;47.40;;;;;;5070534;28;20025;-67
2023/06/17 07:27:22;;;;;;;5.07;3.22;;;25.10;47.00;;;;;;5082959;28;20020;-67
2023/06/17 07:29:47;;;;;;;4.25;3.47;;;25.10;46.80;;;;;;5077473;28;20038;-67
2023/06/17 07:32:13;;;;;;;3.17;2.80;;;25.20;46.70;;;;;;5075945;28;20031;-67
2023/06/17 07:34:39;;;;;;;3.35;2.83;;;25.30;45.90;;;;;;5073769;28;20025;-67
2023/06/17 07:37:04;;;;;;;3.78;3.03;;;25.40;44.90;;;;;;5076677;28;20037;-67
2023/06/17 07:39:30;;;;;;;4.40;2.92;;;25.60;44.10;;;;;;5077569;28;20425;-67
2023/06/17 07:41:55;;;;;;;3.22;2.60;;;25.70;43.40;;;;;;5079715;28;20588;-67
2023/06/17 07:44:21;;;;;;;4.03;3.30;;;25.80;42.30;;;;;;5079712;28;20035;-67
2023/06/17 07:46:46;;;;;;;3.55;2.85;;;26.00;41.80;;;;;;5077929;28;20099;-68
2023/06/17 07:49:12;;;;;;;4.47;3.20;;;26.00;41.20;;;;;;5087655;28;20394;-67
2023/06/17 07:51:37;;;;;;;5.00;3.20;;;26.00;40.90;;;;;;5073041;28;20480;-68
2023/06/17 07:54:06;;;;;;;3.70;2.85;;;26.10;40.50;;;;;;5082616;28;20443;-68
2023/06/17 07:56:31;;;;;;;3.65;3.00;;;26.10;40.70;;;;;;5075283;28;20036;-68
2023/06/17 07:58:59;;;;;;;4.60;3.25;;;26.30;40.50;;;;;;5078936;28;20024;-67
2023/06/17 08:01:24;;;;;;;4.00;3.30;;;26.40;40.40;;;;;;5083388;28;20429;-67
2023/06/17 08:03:50;;;;;;;3.90;3.17;;;26.50;40.20;;;;;;5084062;28;20027;-67
2023/06/17 08:06:16;;;;;;;3.95;3.10;;;26.60;39.70;;;;;;5072810;28;20363;-68
2023/06/17 08:08:42;;;;;;;4.70;3.58;;;26.60;39.70;;;;;;5074419;28;20486;-68
2023/06/17 08:11:08;;;;;;;3.38;3.00;;;26.60;39.30;;;;;;5071497;28;20020;-69
2023/06/17 08:13:33;;;;;;;3.50;3.20;;;26.70;39.70;;;;;;5087003;28;20056;-68
2023/06/17 08:15:59;;;;;;;3.35;2.90;;;26.80;39.30;;;;;;5073965;28;20060;-67
2023/06/17 08:18:25;;;;;;;4.90;3.20;;;27.00;39.50;;;;;;5082576;28;20053;-67
2023/06/17 08:20:51;;;;;;;3.60;3.00;;;27.10;39.30;;;;;;5081250;28;20095;-67
2023/06/17 08:23:16;;;;;;;3.53;3.20;;;27.20;39.00;;;;;;5084033;28;20027;-67
2023/06/17 08:25:42;;;;;;;3.45;3.05;;;27.30;38.80;;;;;;5079238;28;20035;-67
2023/06/17 08:28:07;;;;;;;2.85;2.33;;;27.30;38.40;;;;;;5070492;28;20028;-67
2023/06/17 08:30:33;;;;;;;3.38;3.08;;;27.40;38.50;;;;;;5071934;28;20066;-67
2023/06/17 08:32:59;;;;;;;4.90;3.17;;;27.50;38.10;;;;;;5078710;28;20425;-68
2023/06/17 08:35:24;;;;;;;4.20;3.00;;;27.50;38.00;;;;;;5080611;28;20172;-67
2023/06/17 08:37:50;;;;;;;4.53;2.97;;;27.60;37.80;;;;;;5079879;28;20162;-68
2023/06/17 08:40:16;;;;;;;4.25;3.10;;;27.50;37.40;;;;;;5078087;28;20035;-67
2023/06/17 08:42:42;;;;;;;3.72;2.83;;;27.40;36.60;;;;;;5086792;28;20024;-68
2023/06/17 08:45:08;;;;;;;2.63;2.35;;;27.60;36.60;;;;;;5077298;28;20028;-68
2023/06/17 08:47:35;;;;;;;2.95;2.53;;;27.70;36.40;;;;;;5077874;28;20024;-68
2023/06/17 08:50:02;;;;;;;3.28;2.95;;;27.70;36.10;;;;;;5079456;28;20029;-68
2023/06/17 08:52:31;;;;;;;2.95;2.70;;;27.70;35.60;;;;;;5077179;28;20013;-68
2023/06/17 08:54:59;;;;;;;3.22;2.67;;;27.60;35.60;;;;;;5081947;28;20070;-68
2023/06/17 08:57:26;;;;;;;4.60;2.65;;;27.70;35.80;;;;;;5078068;28;20034;-68
2023/06/17 08:59:52;;;;;;;3.47;2.75;;;27.90;35.80;;;;;;5085002;28;20016;-68
2023/06/17 09:02:18;;;;;;;3.95;2.47;;;28.00;35.60;;;;;;5087379;28;20035;-68
2023/06/17 09:04:43;;;;;;;4.45;2.58;;;28.10;35.10;;;;;;5085518;28;20051;-68
2023/06/17 09:07:09;;;;;;;4.35;3.00;;;28.10;34.70;;;;;;5078632;28;20025;-68
2023/06/17 09:09:35;;;;;;;4.57;3.08;;;28.10;34.80;;;;;;5074247;28;20032;-68
2023/06/17 09:12:05;;;;;;;3.25;2.90;;;28.10;34.50;;;;;;5084442;28;20059;-68
2023/06/17 09:14:32;;;;;;;4.28;2.85;;;28.10;34.50;;;;;;5080526;28;20501;-68
2023/06/17 09:16:58;;;;;;;3.92;2.85;;;28.10;34.40;;;;;;5090813;28;20034;-68
2023/06/17 09:19:24;;;;;;;4.75;2.70;;;28.10;34.00;;;;;;5075980;28;20111;-68
2023/06/17 09:21:50;;;;;;;3.65;2.60;;;28.20;34.30;;;;;;5079915;28;20473;-68
2023/06/17 09:24:15;;;;;;;2.90;2.60;;;28.40;34.40;;;;;;5084612;28;20023;-68
2023/06/17 09:26:42;;;;;;;4.60;2.78;;;28.60;34.10;;;;;;5090211;28;20024;-68
2023/06/17 09:29:11;;;;;;;4.88;2.80;;;28.60;33.80;;;;;;5080186;28;20101;-68
2023/06/17 09:31:53;;;;;;;3.70;3.00;;;28.70;33.70;;;;;;5087207;28;20024;-68
2023/06/17 09:34:19;;;;;;;2.58;2.38;;;28.70;33.50;;;;;;5083470;28;20055;-68
2023/06/17 09:36:46;;;;;;;5.78;2.78;;;28.80;33.50;;;;;;5077057;28;20039;-68
2023/06/17 09:39:13;;;;;;;3.65;2.67;;;28.80;33.30;;;;;;5084716;28;20028;-68
2023/06/17 09:41:42;;;;;;;3.55;2.70;;;28.90;33.60;;;;;;5080196;28;20024;-68
2023/06/17 09:44:08;;;;;;;3.13;2.80;;;29.00;33.50;;;;;;5080637;28;20382;-68
2023/06/17 09:46:36;;;;;;;3.83;2.78;;;29.00;33.20;;;;;;5074630;28;20345;-68
2023/06/17 09:49:21;;;;;;;3.00;2.70;;;28.90;33.10;;;;;;5080277;28;20127;-68
2023/06/17 09:51:48;;;;;;;5.63;2.97;;;28.80;32.70;;;;;;5089657;28;20390;-68
2023/06/17 09:54:15;;;;;;;4.00;2.60;;;28.80;32.70;;;;;;5074350;28;20019;-67
2023/06/17 09:56:43;;;;;;;3.90;2.70;;;28.90;32.70;;;;;;5072718;28;20086;-67
2023/06/17 09:59:10;;;;;;;2.80;2.55;;;29.10;32.60;;;;;;5079557;28;20032;-67
2023/06/17 10:01:39;;;;;;;2.88;2.67;;;29.20;32.50;;;;;;5086064;28;20361;-67
2023/06/17 10:04:06;;;;;;;3.72;2.80;;;29.20;32.30;;;;;;5082292;28;20028;-67
2023/06/17 10:06:34;;;;;;;3.78;2.70;;;29.20;32.30;;;;;;5074837;28;20379;-67
2023/06/17 10:09:06;;;;;;;4.13;2.75;;;29.40;32.40;;;;;;5073068;28;20021;-67
2023/06/17 10:11:33;;;;;;;2.97;2.65;;;29.40;32.40;;;;;;5089017;28;20047;-67
2023/06/17 10:14:17;;;;;;;3.35;2.78;;;29.50;32.30;;;;;;5082217;28;20032;-68
2023/06/17 10:16:48;;;;;;;4.00;2.55;;;29.60;32.40;;;;;;5081548;28;20024;-67
2023/06/17 10:19:17;;;;;;;4.20;2.88;;;29.70;32.30;;;;;;5073763;28;20024;-67
2023/06/17 10:21:46;;;;;;;3.38;2.60;;;29.70;31.90;;;;;;5073283;28;20028;-67
2023/06/17 10:24:13;;;;;;;4.70;2.70;;;29.80;32.20;;;;;;5075298;28;20081;-67
2023/06/17 10:26:39;;;;;;;2.92;2.35;;;29.70;31.90;;;;;;5076762;28;20103;-67
2023/06/17 10:29:07;;;;;;;3.33;2.72;;;29.80;31.80;;;;;;5087515;28;20415;-67
2023/06/17 10:31:42;;;;;;;3.67;2.72;;;29.90;31.30;;;;;;5082044;28;20027;-67
2023/06/17 10:34:13;;;;;;;3.00;2.70;;;29.70;31.40;;;;;;5078667;28;20040;-67
2023/06/17 10:36:39;;;;;;;3.58;2.70;;;29.70;31.70;;;;;;5081248;28;20536;-67
2023/06/17 10:39:14;;;;;;;5.03;2.67;;;29.80;31.90;;;;;;5078264;28;20048;-67
2023/06/17 10:41:42;;;;;;;4.15;2.80;;;30.00;32.00;;;;;;5076787;28;20109;-67
2023/06/17 10:44:23;;;;;;;3.90;2.67;;;30.10;31.80;;;;;;5080133;28;20399;-67
2023/06/17 10:46:49;;;;;;;3.43;2.63;;;30.20;31.40;;;;;;5077519;28;20031;-67
2023/06/17 10:49:16;;;;;;;3.97;2.70;;;30.20;31.20;;;;;;5079533;28;20273;-67
2023/06/17 10:51:49;;;;;;;3.30;2.35;;;30.10;30.80;;;;;;5084254;28;20322;-68
2023/06/17 10:54:25;;;;;;;4.38;2.60;;;30.20;30.90;;;;;;5078619;28;20097;-67
2023/06/17 10:56:51;;;;;;;3.47;2.50;;;30.10;30.70;;;;;;5078918;28;20035;-67
2023/06/17 10:59:30;;;;;;;2.80;2.20;;;30.20;30.80;;;;;;5086910;28;20031;-67
2023/06/17 11:02:03;;;;;;;2.47;2.28;;;30.40;30.80;;;;;;5077010;28;20055;-67
2023/06/17 11:04:32;;;;;;;3.40;2.55;;;30.40;30.80;;;;;;5076222;28;20066;-68
2023/06/17 11:06:59;;;;;;;3.83;2.92;;;30.50;31.00;;;;;;5081180;28;20090;-69
2023/06/17 11:09:25;;;;;;;3.67;2.97;;;30.60;30.80;;;;;;5078093;28;20020;-68
2023/06/17 11:11:52;;;;;;;3.38;2.92;;;30.60;30.60;;;;;;5079871;28;20095;-67
2023/06/17 11:14:18;;;;;;;3.83;3.10;;;30.60;30.80;;;;;;5078457;28;20198;-67
2023/06/17 11:16:43;;;;;;;3.28;2.70;;;30.60;30.40;;;;;;5082093;28;20036;-68
2023/06/17 11:19:09;;;;;;;5.18;2.90;;;30.60;30.40;;;;;;5081291;28;20650;-67
2023/06/17 11:21:37;;;;;;;4.05;2.90;;;30.60;30.40;;;;;;5082106;28;20024;-68
2023/06/17 11:24:03;;;;;;;3.97;2.60;;;30.70;30.10;;;;;;5078293;28;20052;-67
2023/06/17 11:26:28;;;;;;;4.07;2.60;;;30.80;30.20;;;;;;5079804;28;20044;-67
2023/06/17 11:28:54;;;;;;;4.90;2.70;;;31.00;30.10;;;;;;5083194;28;20043;-67
2023/06/17 11:31:25;;;;;;;3.70;2.60;;;31.20;30.10;;;;;;5078903;28;20024;-67
2023/06/17 11:33:57;;;;;;;3.20;2.50;;;31.40;30.00;;;;;;5077462;28;20043;-67
2023/06/17 11:36:23;;;;;;;2.58;2.38;;;31.60;30.00;;;;;;5074384;28;20036;-67
2023/06/17 11:38:50;;;;;;;3.05;2.75;;;31.60;29.90;;;;;;5077477;28;20442;-67
2023/06/17 11:41:16;;;;;;;3.58;2.92;;;31.60;29.50;;;;;;5078005;28;20503;-67
2023/06/17 11:43:42;;;;;;;3.90;2.90;;;31.50;29.60;;;;;;5084995;28;20474;-67
2023/06/17 11:46:08;;;;;;;4.40;2.80;;;31.40;29.50;;;;;;5077527;28;20037;-67
2023/06/17 11:48:34;;;;;;;2.65;2.45;;;31.50;29.40;;;;;;5083023;28;20047;-67
2023/06/17 11:51:00;;;;;;;3.92;2.85;;;31.60;29.50;;;;;;5079839;28;20034;-68
2023/06/17 11:53:39;;;;;;;3.92;2.83;;;31.70;29.50;;;;;;5077859;28;20033;-69
2023/06/17 11:56:06;;;;;;;3.10;2.70;;;32.00;29.50;;;;;;5083730;28;20102;-67
2023/06/17 11:58:38;;;;;;;2.90;2.60;;;32.10;29.10;;;;;;5083026;28;20031;-68
2023/06/17 12:01:05;;;;;;;2.67;2.22;;;32.20;29.00;;;;;;5082710;28;20048;-68
2023/06/17 12:03:31;;;;;;;3.28;2.72;;;32.40;29.20;;;;;;5076664;28;20020;-68
2023/06/17 12:05:57;;;;;;;3.40;2.92;;;32.50;29.60;;;;;;5078170;28;20034;-68
2023/06/17 12:08:24;;;;;;;3.13;2.75;;;32.40;28.90;;;;;;5080396;28;20118;-68
2023/06/17 12:10:50;;;;;;;4.05;2.70;;;32.50;29.20;;;;;;5081922;28;20028;-68
2023/06/17 12:13:16;;;;;;;4.72;3.60;;;32.50;29.00;;;;;;5074545;28;20038;-68
2023/06/17 12:15:42;;;;;;;6.20;4.13;;;32.60;28.80;;;;;;5078896;28;20032;-68
2023/06/17 12:18:10;;;;;;;4.10;3.22;;;32.70;28.80;;;;;;5077821;28;20031;-68
2023/06/17 12:20:39;;;;;;;3.70;3.22;;;32.80;28.70;;;;;;5082034;28;20078;-68
2023/06/17 12:23:05;;;;;;;3.47;2.80;;;32.80;28.60;;;;;;5074883;28;20036;-68
2023/06/17 12:25:34;;;;;;;3.03;2.72;;;32.70;28.40;;;;;;5077617;28;20020;-68
2023/06/17 12:28:01;;;;;;;3.65;2.70;;;32.80;28.50;;;;;;5074690;28;20090;-68
2023/06/17 12:30:27;;;;;;;5.28;2.83;;;32.90;28.50;;;;;;5078269;28;20021;-68
2023/06/17 12:32:53;;;;;;;2.47;2.25;;;32.90;28.20;;;;;;5082168;28;20040;-68
2023/06/17 12:35:19;;;;;;;3.33;2.70;;;33.10;28.30;;;;;;5086881;28;20028;-68
2023/06/17 12:37:46;;;;;;;3.38;3.08;;;33.10;28.20;;;;;;5078370;28;20024;-68
2023/06/17 12:40:12;;;;;;;3.25;2.90;;;33.20;27.50;;;;;;5081010;28;20099;-68
2023/06/17 12:42:38;;;;;;;2.70;2.50;;;33.10;27.60;;;;;;5081089;28;20111;-68
2023/06/17 12:45:05;;;;;;;3.05;2.67;;;33.40;27.90;;;;;;5074066;28;20028;-68